Fort Worth Meacham International Airport
KFTW : now visible

Airfield :











YOU CAN JOIN US ON...

 
LOGIN :

Register | Disclaimer

   EN    FR    IT 

 









Legend :    VFR   Marginal VFR   IFR   Intensive IFR   Very Intensive IFR
Visi :
Ceiling :
>= 8 km
>= 3000ft
5 to 8 km
1000 to 3000 ft
1500m to 5 km
500 to 1000 ft
800 to 1500m
200 to 500 ft
< 800m
< 200 ft
Symbols :   Thunderstorms  Fog  Heavy snow  Heavy precipitations  Wind > 20 kt






- Airport Elevation : 710 ft
- IATA code : FTW


KFTW - Fort Worth Meacham International

CURRENT METAR :
  • 140053Z 06004KT 10SM CLR 12/07 A2985 RMK AO2 SLP107 T01220067

EXPIRED METARs :
  • 132353Z 00000KT 10SM CLR 13/07 A2983 RMK AO2 SLP100 T01330067 10178 20128 51008
  • 132253Z 02004KT 10SM CLR 16/07 A2982 RMK AO2 SLP097 T01560067

TAF KFTW
Valid from the 14 at 00:00 until the 15 at 00:00 UTC


132330Z 1400/1424 02004KT P6SM FEW150 SCT250
TEMPO 1410/1414 00000KT 4SM BR FEW006
FM142000 11006KT P6SM SCT250



MET'MAP, your aeronautical weather chart ! - Copyright ORBIFLY December 2007 - Disclaimer

ORBIFLY MET'MAP TEAM :

Programming & Development : Alexandra Zaïnal
Concept & original design : Baudouin d'Aumeries
Assistance for programming : Marc-Olivier Méhu
Technical & hardware support : Manuel Goepfert

Contact : metmap@orbifly.com




SOURCES & CREDITS :

   NOAA       Earth
Advisory